sensor_id;sensor_type;location;lat;lon;timestamp;pressure;altitude;pressure_sealevel;temperature;humidity
13367;BME280;6752;52.612;13.630;2023-07-30T00:00:13;100163.73;;;17.66;100.00
13367;BME280;6752;52.612;13.630;2023-07-30T00:05:15;100162.11;;;17.68;100.00
13367;BME280;6752;52.612;13.630;2023-07-30T00:10:18;100168.59;;;17.57;100.00
13367;BME280;6752;52.612;13.630;2023-07-30T00:15:20;100163.90;;;17.50;100.00
13367;BME280;6752;52.612;13.630;2023-07-30T00:20:23;100155.27;;;17.40;100.00
13367;BME280;6752;52.612;13.630;2023-07-30T00:25:25;100162.86;;;17.31;100.00
13367;BME280;6752;52.612;13.630;2023-07-30T00:30:27;100154.31;;;17.25;100.00
13367;BME280;6752;52.612;13.630;2023-07-30T00:35:30;100145.09;;;17.20;100.00
13367;BME280;6752;52.612;13.630;2023-07-30T00:40:32;100145.66;;;17.14;100.00
13367;BME280;6752;52.612;13.630;2023-07-30T00:45:34;100154.77;;;17.05;100.00
13367;BME280;6752;52.612;13.630;2023-07-30T00:50:37;100154.34;;;17.07;100.00
13367;BME280;6752;52.612;13.630;2023-07-30T00:55:39;100148.83;;;16.97;100.00
13367;BME280;6752;52.612;13.630;2023-07-30T01:00:41;100145.39;;;16.93;100.00
13367;BME280;6752;52.612;13.630;2023-07-30T01:05:44;100139.61;;;16.94;100.00
13367;BME280;6752;52.612;13.630;2023-07-30T01:10:46;100135.90;;;16.92;100.00
13367;BME280;6752;52.612;13.630;2023-07-30T01:15:48;100138.78;;;16.79;100.00
13367;BME280;6752;52.612;13.630;2023-07-30T01:20:54;100123.78;;;16.78;100.00
13367;BME280;6752;52.612;13.630;2023-07-30T01:26:12;100128.19;;;16.94;100.00
13367;BME280;6752;52.612;13.630;2023-07-30T01:31:17;100154.88;;;16.73;100.00
13367;BME280;6752;52.612;13.630;2023-07-30T01:36:19;100163.13;;;16.76;100.00
13367;BME280;6752;52.612;13.630;2023-07-30T01:41:21;100170.84;;;16.69;100.00
13367;BME280;6752;52.612;13.630;2023-07-30T01:46:24;100176.34;;;16.66;100.00
13367;BME280;6752;52.612;13.630;2023-07-30T01:51:26;100184.67;;;16.55;100.00
13367;BME280;6752;52.612;13.630;2023-07-30T01:56:28;100195.12;;;16.46;100.00
13367;BME280;6752;52.612;13.630;2023-07-30T02:01:31;100197.17;;;16.44;100.00
13367;BME280;6752;52.612;13.630;2023-07-30T02:06:33;100199.80;;;16.50;100.00
13367;BME280;6752;52.612;13.630;2023-07-30T02:11:36;100191.95;;;16.43;100.00
13367;BME280;6752;52.612;13.630;2023-07-30T02:16:38;100197.72;;;16.41;100.00
13367;BME280;6752;52.612;13.630;2023-07-30T02:21:40;100191.12;;;16.37;100.00
13367;BME280;6752;52.612;13.630;2023-07-30T02:26:43;100182.41;;;16.29;100.00
13367;BME280;6752;52.612;13.630;2023-07-30T02:31:45;100186.53;;;16.32;100.00
13367;BME280;6752;52.612;13.630;2023-07-30T02:36:48;100181.76;;;16.33;100.00
13367;BME280;6752;52.612;13.630;2023-07-30T02:41:50;100190.52;;;16.30;100.00
13367;BME280;6752;52.612;13.630;2023-07-30T02:46:52;100192.03;;;16.29;100.00
13367;BME280;6752;52.612;13.630;2023-07-30T02:51:54;100195.73;;;16.21;100.00
13367;BME280;6752;52.612;13.630;2023-07-30T02:56:57;100200.26;;;16.19;100.00
13367;BME280;6752;52.612;13.630;2023-07-30T03:01:59;100206.16;;;16.12;100.00
13367;BME280;6752;52.612;13.630;2023-07-30T03:07:02;100211.27;;;16.22;100.00
13367;BME280;6752;52.612;13.630;2023-07-30T03:12:04;100209.06;;;16.19;100.00
13367;BME280;6752;52.612;13.630;2023-07-30T03:17:06;100204.93;;;16.16;100.00
13367;BME280;6752;52.612;13.630;2023-07-30T03:22:09;100213.66;;;16.03;100.00
13367;BME280;6752;52.612;13.630;2023-07-30T03:27:11;100206.79;;;16.05;100.00
13367;BME280;6752;52.612;13.630;2023-07-30T03:32:13;100212.89;;;16.10;100.00
13367;BME280;6752;52.612;13.630;2023-07-30T03:37:16;100207.05;;;16.01;100.00
13367;BME280;6752;52.612;13.630;2023-07-30T03:42:18;100210.69;;;16.09;100.00
13367;BME280;6752;52.612;13.630;2023-07-30T03:47:20;100210.23;;;16.07;100.00
13367;BME280;6752;52.612;13.630;2023-07-30T03:52:23;100212.22;;;16.19;100.00
13367;BME280;6752;52.612;13.630;2023-07-30T03:57:25;100220.73;;;16.17;100.00
13367;BME280;6752;52.612;13.630;2023-07-30T04:02:27;100223.91;;;16.20;100.00
13367;BME280;6752;52.612;13.630;2023-07-30T04:07:30;100226.38;;;16.19;100.00
13367;BME280;6752;52.612;13.630;2023-07-30T04:12:32;100229.27;;;16.21;100.00
13367;BME280;6752;52.612;13.630;2023-07-30T04:17:35;100236.30;;;16.25;100.00
13367;BME280;6752;52.612;13.630;2023-07-30T04:22:37;100241.48;;;16.11;100.00
13367;BME280;6752;52.612;13.630;2023-07-30T04:27:39;100247.77;;;16.38;100.00
13367;BME280;6752;52.612;13.630;2023-07-30T04:32:42;100243.67;;;16.48;100.00
13367;BME280;6752;52.612;13.630;2023-07-30T04:37:44;100233.58;;;16.67;100.00
13367;BME280;6752;52.612;13.630;2023-07-30T04:42:46;100230.05;;;16.86;100.00
13367;BME280;6752;52.612;13.630;2023-07-30T04:47:49;100245.19;;;16.89;100.00
13367;BME280;6752;52.612;13.630;2023-07-30T04:52:51;100260.33;;;16.92;100.00
13367;BME280;6752;52.612;13.630;2023-07-30T04:57:53;100244.66;;;17.17;100.00
13367;BME280;6752;52.612;13.630;2023-07-30T05:02:56;100250.73;;;17.32;100.00
13367;BME280;6752;52.612;13.630;2023-07-30T05:07:58;100245.73;;;17.49;100.00
13367;BME280;6752;52.612;13.630;2023-07-30T05:13:01;100233.75;;;17.80;100.00
13367;BME280;6752;52.612;13.630;2023-07-30T05:18:03;100247.71;;;18.12;100.00
13367;BME280;6752;52.612;13.630;2023-07-30T05:23:05;100238.30;;;18.53;100.00
13367;BME280;6752;52.612;13.630;2023-07-30T05:28:08;100222.36;;;18.62;100.00
13367;BME280;6752;52.612;13.630;2023-07-30T05:33:10;100228.28;;;18.94;100.00
13367;BME280;6752;52.612;13.630;2023-07-30T05:38:12;100227.74;;;19.26;100.00
13367;BME280;6752;52.612;13.630;2023-07-30T05:43:15;100226.28;;;19.68;100.00
13367;BME280;6752;52.612;13.630;2023-07-30T05:48:17;100222.57;;;19.92;100.00
13367;BME280;6752;52.612;13.630;2023-07-30T05:53:19;100227.51;;;20.43;100.00
13367;BME280;6752;52.612;13.630;2023-07-30T05:58:22;100233.50;;;20.38;100.00
13367;BME280;6752;52.612;13.630;2023-07-30T06:03:24;100236.70;;;20.14;100.00
13367;BME280;6752;52.612;13.630;2023-07-30T06:08:27;100239.18;;;20.49;100.00
13367;BME280;6752;52.612;13.630;2023-07-30T06:13:29;100243.45;;;20.27;100.00
13367;BME280;6752;52.612;13.630;2023-07-30T06:18:31;100246.41;;;20.12;100.00
13367;BME280;6752;52.612;13.630;2023-07-30T06:23:34;100245.58;;;20.57;100.00
13367;BME280;6752;52.612;13.630;2023-07-30T06:28:36;100232.55;;;20.14;100.00
13367;BME280;6752;52.612;13.630;2023-07-30T06:33:38;100240.03;;;20.59;100.00
13367;BME280;6752;52.612;13.630;2023-07-30T06:38:41;100247.33;;;20.90;100.00
13367;BME280;6752;52.612;13.630;2023-07-30T06:43:43;100256.23;;;20.68;100.00
13367;BME280;6752;52.612;13.630;2023-07-30T06:48:45;100251.89;;;21.09;100.00
13367;BME280;6752;52.612;13.630;2023-07-30T06:53:48;100256.47;;;20.91;100.00
13367;BME280;6752;52.612;13.630;2023-07-30T06:58:50;100254.28;;;20.97;100.00
13367;BME280;6752;52.612;13.630;2023-07-30T07:03:52;100240.95;;;21.90;100.00
13367;BME280;6752;52.612;13.630;2023-07-30T07:08:55;100253.70;;;21.74;100.00
13367;BME280;6752;52.612;13.630;2023-07-30T07:13:57;100255.20;;;21.18;100.00
13367;BME280;6752;52.612;13.630;2023-07-30T07:19:00;100240.95;;;21.97;100.00
13367;BME280;6752;52.612;13.630;2023-07-30T07:24:02;100244.78;;;22.67;100.00
13367;BME280;6752;52.612;13.630;2023-07-30T07:29:04;100243.06;;;22.25;100.00
13367;BME280;6752;52.612;13.630;2023-07-30T07:34:07;100229.74;;;22.95;100.00
13367;BME280;6752;52.612;13.630;2023-07-30T07:39:09;100231.20;;;23.42;100.00
13367;BME280;6752;52.612;13.630;2023-07-30T07:44:11;100219.77;;;23.81;100.00
13367;BME280;6752;52.612;13.630;2023-07-30T07:49:14;100229.05;;;24.12;100.00
13367;BME280;6752;52.612;13.630;2023-07-30T07:54:16;100232.29;;;24.16;100.00
13367;BME280;6752;52.612;13.630;2023-07-30T07:59:18;100240.20;;;24.60;97.70
13367;BME280;6752;52.612;13.630;2023-07-30T08:04:21;100233.44;;;24.15;95.61
13367;BME280;6752;52.612;13.630;2023-07-30T08:09:23;100234.34;;;24.88;98.62
13367;BME280;6752;52.612;13.630;2023-07-30T08:14:26;100235.48;;;23.97;92.98
13367;BME280;6752;52.612;13.630;2023-07-30T08:19:28;100234.41;;;24.68;94.69
13367;BME280;6752;52.612;13.630;2023-07-30T08:24:30;100229.91;;;25.30;92.98
13367;BME280;6752;52.612;13.630;2023-07-30T08:29:33;100240.39;;;24.81;92.46
13367;BME280;6752;52.612;13.630;2023-07-30T08:34:35;100237.30;;;24.95;98.27
13367;BME280;6752;52.612;13.630;2023-07-30T08:39:37;100235.42;;;24.43;98.13
13367;BME280;6752;52.612;13.630;2023-07-30T08:44:40;100235.08;;;25.43;86.55
13367;BME280;6752;52.612;13.630;2023-07-30T08:49:42;100242.95;;;24.03;95.64
13367;BME280;6752;52.612;13.630;2023-07-30T08:54:44;100244.09;;;24.18;96.90
13367;BME280;6752;52.612;13.630;2023-07-30T08:59:50;100240.05;;;23.93;97.47
13367;BME280;6752;52.612;13.630;2023-07-30T09:04:52;100246.34;;;23.09;95.66
13367;BME280;6752;52.612;13.630;2023-07-30T09:09:54;100245.45;;;25.33;89.62
13367;BME280;6752;52.612;13.630;2023-07-30T09:14:56;100247.23;;;24.58;86.47
13367;BME280;6752;52.612;13.630;2023-07-30T09:19:59;100254.80;;;25.20;80.40
13367;BME280;6752;52.612;13.630;2023-07-30T09:25:02;100244.35;;;26.24;75.33
13367;BME280;6752;52.612;13.630;2023-07-30T09:30:03;100244.49;;;25.93;68.04
13367;BME280;6752;52.612;13.630;2023-07-30T09:35:09;100243.76;;;26.77;66.21
13367;BME280;6752;52.612;13.630;2023-07-30T09:40:12;100245.50;;;26.71;67.16
13367;BME280;6752;52.612;13.630;2023-07-30T09:45:23;100262.66;;;25.00;68.16
13367;BME280;6752;52.612;13.630;2023-07-30T09:50:24;100258.89;;;27.12;68.00
13367;BME280;6752;52.612;13.630;2023-07-30T09:55:27;100253.84;;;27.05;61.65
13367;BME280;6752;52.612;13.630;2023-07-30T10:00:29;100255.23;;;28.51;63.24
13367;BME280;6752;52.612;13.630;2023-07-30T10:05:32;100251.70;;;27.71;61.97
13367;BME280;6752;52.612;13.630;2023-07-30T10:10:34;100248.22;;;26.84;62.44
13367;BME280;6752;52.612;13.630;2023-07-30T10:15:39;100242.00;;;28.03;59.73
13367;BME280;6752;52.612;13.630;2023-07-30T10:20:41;100251.07;;;28.59;61.52
13367;BME280;6752;52.612;13.630;2023-07-30T10:30:54;100269.10;;;25.81;66.39
13367;BME280;6752;52.612;13.630;2023-07-30T10:35:51;100257.56;;;26.88;65.64
13367;BME280;6752;52.612;13.630;2023-07-30T10:46:02;100259.83;;;27.86;61.97
13367;BME280;6752;52.612;13.630;2023-07-30T10:51:05;100246.72;;;28.80;61.10
13367;BME280;6752;52.612;13.630;2023-07-30T10:56:07;100258.99;;;27.09;61.83
13367;BME280;6752;52.612;13.630;2023-07-30T11:01:09;100254.33;;;26.82;63.14
13367;BME280;6752;52.612;13.630;2023-07-30T11:06:12;100256.22;;;27.42;61.17
13367;BME280;6752;52.612;13.630;2023-07-30T11:11:14;100252.22;;;27.68;62.55
13367;BME280;6752;52.612;13.630;2023-07-30T11:16:19;100247.45;;;26.54;60.02
13367;BME280;6752;52.612;13.630;2023-07-30T11:21:21;100252.38;;;26.38;62.43
13367;BME280;6752;52.612;13.630;2023-07-30T11:26:24;100249.42;;;25.47;61.11
13367;BME280;6752;52.612;13.630;2023-07-30T11:31:26;100246.95;;;25.59;63.14
13367;BME280;6752;52.612;13.630;2023-07-30T11:36:28;100237.84;;;26.26;62.37
13367;BME280;6752;52.612;13.630;2023-07-30T11:41:31;100248.55;;;25.36;65.46
13367;BME280;6752;52.612;13.630;2023-07-30T11:46:33;100238.15;;;26.03;66.51
13367;BME280;6752;52.612;13.630;2023-07-30T11:51:36;100241.21;;;25.59;63.76
13367;BME280;6752;52.612;13.630;2023-07-30T11:56:38;100240.69;;;25.66;62.30
13367;BME280;6752;52.612;13.630;2023-07-30T12:01:40;100228.70;;;26.16;60.32
13367;BME280;6752;52.612;13.630;2023-07-30T12:06:46;100232.73;;;25.34;61.48
13367;BME280;6752;52.612;13.630;2023-07-30T12:11:56;100241.67;;;25.34;61.17
13367;BME280;6752;52.612;13.630;2023-07-30T12:16:56;100225.59;;;25.95;57.16
13367;BME280;6752;52.612;13.630;2023-07-30T12:21:58;100210.22;;;27.41;56.17
13367;BME280;6752;52.612;13.630;2023-07-30T12:27:00;100209.98;;;26.72;54.64
13367;BME280;6752;52.612;13.630;2023-07-30T12:32:03;100217.58;;;27.13;56.44
13367;BME280;6752;52.612;13.630;2023-07-30T12:37:05;100205.69;;;26.64;54.22
13367;BME280;6752;52.612;13.630;2023-07-30T12:42:07;100202.83;;;26.52;50.87
13367;BME280;6752;52.612;13.630;2023-07-30T12:47:10;100211.89;;;26.90;53.12
13367;BME280;6752;52.612;13.630;2023-07-30T12:52:12;100212.52;;;26.50;52.98
13367;BME280;6752;52.612;13.630;2023-07-30T12:57:14;100215.45;;;27.04;55.02
13367;BME280;6752;52.612;13.630;2023-07-30T13:02:17;100209.34;;;26.45;53.60
13367;BME280;6752;52.612;13.630;2023-07-30T13:07:19;100211.59;;;26.87;54.81
13367;BME280;6752;52.612;13.630;2023-07-30T13:12:22;100205.73;;;25.92;51.73
13367;BME280;6752;52.612;13.630;2023-07-30T13:17:24;100209.92;;;26.45;53.94
13367;BME280;6752;52.612;13.630;2023-07-30T13:22:26;100204.06;;;26.48;54.33
13367;BME280;6752;52.612;13.630;2023-07-30T13:27:29;100190.50;;;25.57;54.60
13367;BME280;6752;52.612;13.630;2023-07-30T13:32:31;100195.74;;;25.59;56.33
13367;BME280;6752;52.612;13.630;2023-07-30T13:37:33;100190.22;;;25.65;57.56
13367;BME280;6752;52.612;13.630;2023-07-30T13:42:36;100184.06;;;26.27;57.40
13367;BME280;6752;52.612;13.630;2023-07-30T13:47:38;100181.96;;;25.86;55.05
13367;BME280;6752;52.612;13.630;2023-07-30T13:52:40;100181.18;;;25.72;56.20
13367;BME280;6752;52.612;13.630;2023-07-30T13:57:43;100186.33;;;25.12;56.67
13367;BME280;6752;52.612;13.630;2023-07-30T14:02:45;100199.65;;;24.83;58.18
13367;BME280;6752;52.612;13.630;2023-07-30T14:07:47;100199.78;;;25.10;57.65
13367;BME280;6752;52.612;13.630;2023-07-30T14:12:50;100208.84;;;24.96;55.56
13367;BME280;6752;52.612;13.630;2023-07-30T14:17:52;100185.83;;;25.02;56.82
13367;BME280;6752;52.612;13.630;2023-07-30T14:22:55;100195.31;;;24.70;54.94
13367;BME280;6752;52.612;13.630;2023-07-30T14:27:57;100206.84;;;24.50;56.33
13367;BME280;6752;52.612;13.630;2023-07-30T14:32:59;100197.44;;;24.73;56.97
13367;BME280;6752;52.612;13.630;2023-07-30T14:38:02;100224.20;;;24.46;55.35
13367;BME280;6752;52.612;13.630;2023-07-30T14:43:04;100231.39;;;24.18;60.48
13367;BME280;6752;52.612;13.630;2023-07-30T14:48:06;100223.91;;;23.72;58.04
13367;BME280;6752;52.612;13.630;2023-07-30T14:53:12;100244.17;;;23.35;58.91
13367;BME280;6752;52.612;13.630;2023-07-30T14:58:11;100249.51;;;23.05;60.36
13367;BME280;6752;52.612;13.630;2023-07-30T15:03:13;100262.22;;;22.77;63.30
13367;BME280;6752;52.612;13.630;2023-07-30T15:08:16;100255.92;;;22.60;63.03
13367;BME280;6752;52.612;13.630;2023-07-30T15:13:18;100259.40;;;22.34;62.98
13367;BME280;6752;52.612;13.630;2023-07-30T15:18:20;100272.86;;;22.06;67.53
13367;BME280;6752;52.612;13.630;2023-07-30T15:23:23;100267.66;;;21.63;73.21
13367;BME280;6752;52.612;13.630;2023-07-30T15:28:25;100254.39;;;21.36;77.69
13367;BME280;6752;52.612;13.630;2023-07-30T15:33:28;100245.11;;;21.60;77.72
13367;BME280;6752;52.612;13.630;2023-07-30T15:38:30;100232.12;;;21.65;79.50
13367;BME280;6752;52.612;13.630;2023-07-30T15:43:32;100235.67;;;21.74;79.38
13367;BME280;6752;52.612;13.630;2023-07-30T15:48:35;100213.59;;;21.69;81.57
13367;BME280;6752;52.612;13.630;2023-07-30T15:53:38;100209.99;;;21.39;84.27
13367;BME280;6752;52.612;13.630;2023-07-30T15:58:39;100217.19;;;21.47;90.40
13367;BME280;6752;52.612;13.630;2023-07-30T16:03:42;100216.93;;;21.46;86.59
13367;BME280;6752;52.612;13.630;2023-07-30T16:08:44;100227.60;;;21.55;88.01
13367;BME280;6752;52.612;13.630;2023-07-30T16:13:47;100227.23;;;21.36;87.24
13367;BME280;6752;52.612;13.630;2023-07-30T16:18:52;100230.27;;;21.18;85.83
13367;BME280;6752;52.612;13.630;2023-07-30T16:23:54;100227.95;;;21.25;85.92
13367;BME280;6752;52.612;13.630;2023-07-30T16:28:56;100234.55;;;21.01;85.58
13367;BME280;6752;52.612;13.630;2023-07-30T16:33:59;100236.75;;;21.02;87.71
13367;BME280;6752;52.612;13.630;2023-07-30T16:39:05;100240.58;;;21.24;86.20
13367;BME280;6752;52.612;13.630;2023-07-30T16:44:03;100234.28;;;21.00;85.26
13367;BME280;6752;52.612;13.630;2023-07-30T16:49:06;100252.90;;;21.25;85.00
13367;BME280;6752;52.612;13.630;2023-07-30T16:54:08;100241.78;;;20.71;85.64
13367;BME280;6752;52.612;13.630;2023-07-30T16:59:10;100265.13;;;20.75;86.54
13367;BME280;6752;52.612;13.630;2023-07-30T17:04:13;100257.31;;;21.36;85.73
13367;BME280;6752;52.612;13.630;2023-07-30T17:09:15;100261.77;;;21.25;86.35
13367;BME280;6752;52.612;13.630;2023-07-30T17:14:17;100272.18;;;20.95;89.64
13367;BME280;6752;52.612;13.630;2023-07-30T17:19:20;100276.66;;;20.72;92.49
13367;BME280;6752;52.612;13.630;2023-07-30T17:24:22;100278.19;;;20.83;92.53
13367;BME280;6752;52.612;13.630;2023-07-30T17:29:25;100284.59;;;20.60;94.07
13367;BME280;6752;52.612;13.630;2023-07-30T17:34:27;100275.31;;;20.60;94.29
13367;BME280;6752;52.612;13.630;2023-07-30T17:39:33;100284.48;;;20.46;94.67
13367;BME280;6752;52.612;13.630;2023-07-30T17:44:32;100287.96;;;20.45;96.55
13367;BME280;6752;52.612;13.630;2023-07-30T17:49:34;100287.69;;;20.30;96.75
13367;BME280;6752;52.612;13.630;2023-07-30T17:54:36;100289.86;;;20.33;97.98
13367;BME280;6752;52.612;13.630;2023-07-30T17:59:39;100291.08;;;20.24;98.90
13367;BME280;6752;52.612;13.630;2023-07-30T18:04:41;100300.56;;;20.18;100.00
13367;BME280;6752;52.612;13.630;2023-07-30T18:09:43;100302.39;;;20.16;100.00
13367;BME280;6752;52.612;13.630;2023-07-30T18:14:46;100304.39;;;20.07;100.00
13367;BME280;6752;52.612;13.630;2023-07-30T18:19:49;100313.20;;;19.88;100.00
13367;BME280;6752;52.612;13.630;2023-07-30T18:24:51;100304.86;;;19.76;100.00
13367;BME280;6752;52.612;13.630;2023-07-30T18:29:54;100305.33;;;19.71;100.00
13367;BME280;6752;52.612;13.630;2023-07-30T18:34:56;100308.58;;;19.64;100.00
13367;BME280;6752;52.612;13.630;2023-07-30T18:39:59;100323.28;;;19.52;100.00
13367;BME280;6752;52.612;13.630;2023-07-30T18:45:01;100327.77;;;19.45;100.00
13367;BME280;6752;52.612;13.630;2023-07-30T18:50:03;100334.29;;;19.42;100.00
13367;BME280;6752;52.612;13.630;2023-07-30T18:55:06;100338.36;;;19.30;100.00
13367;BME280;6752;52.612;13.630;2023-07-30T19:00:08;100344.12;;;19.20;100.00
13367;BME280;6752;52.612;13.630;2023-07-30T19:05:10;100350.06;;;19.15;100.00
13367;BME280;6752;52.612;13.630;2023-07-30T19:10:13;100348.73;;;19.07;100.00
13367;BME280;6752;52.612;13.630;2023-07-30T19:15:15;100355.25;;;19.04;100.00
13367;BME280;6752;52.612;13.630;2023-07-30T19:20:17;100363.42;;;19.00;100.00
13367;BME280;6752;52.612;13.630;2023-07-30T19:25:20;100439.38;;;19.00;100.00
13367;BME280;6752;52.612;13.630;2023-07-30T19:30:22;100445.53;;;17.62;100.00
13367;BME280;6752;52.612;13.630;2023-07-30T19:35:25;100455.73;;;17.10;100.00
13367;BME280;6752;52.612;13.630;2023-07-30T19:40:27;100470.55;;;16.78;100.00
13367;BME280;6752;52.612;13.630;2023-07-30T19:45:29;100478.09;;;16.55;100.00
13367;BME280;6752;52.612;13.630;2023-07-30T19:50:32;100471.60;;;16.51;100.00
13367;BME280;6752;52.612;13.630;2023-07-30T19:55:34;100472.00;;;16.48;100.00
13367;BME280;6752;52.612;13.630;2023-07-30T20:00:36;100464.98;;;16.47;100.00
13367;BME280;6752;52.612;13.630;2023-07-30T20:05:39;100467.52;;;16.74;100.00
13367;BME280;6752;52.612;13.630;2023-07-30T20:10:41;100461.36;;;17.07;100.00
13367;BME280;6752;52.612;13.630;2023-07-30T20:15:43;100464.95;;;17.07;100.00
13367;BME280;6752;52.612;13.630;2023-07-30T20:20:46;100468.95;;;17.11;100.00
13367;BME280;6752;52.612;13.630;2023-07-30T20:25:48;100466.80;;;16.97;100.00
13367;BME280;6752;52.612;13.630;2023-07-30T20:30:51;100467.87;;;16.88;100.00
13367;BME280;6752;52.612;13.630;2023-07-30T20:35:53;100470.70;;;16.80;100.00
13367;BME280;6752;52.612;13.630;2023-07-30T20:40:59;100471.61;;;16.67;100.00
13367;BME280;6752;52.612;13.630;2023-07-30T20:45:58;100471.83;;;16.41;100.00
13367;BME280;6752;52.612;13.630;2023-07-30T20:51:00;100477.68;;;16.16;100.00
13367;BME280;6752;52.612;13.630;2023-07-30T20:56:02;100479.96;;;15.81;100.00
13367;BME280;6752;52.612;13.630;2023-07-30T21:01:05;100483.51;;;15.54;100.00
13367;BME280;6752;52.612;13.630;2023-07-30T21:06:07;100486.11;;;15.53;100.00
13367;BME280;6752;52.612;13.630;2023-07-30T21:11:10;100487.48;;;15.39;100.00
13367;BME280;6752;52.612;13.630;2023-07-30T21:16:12;100493.53;;;15.30;100.00
13367;BME280;6752;52.612;13.630;2023-07-30T21:21:14;100494.55;;;15.35;100.00
13367;BME280;6752;52.612;13.630;2023-07-30T21:26:17;100503.88;;;15.34;100.00
13367;BME280;6752;52.612;13.630;2023-07-30T21:31:19;100492.09;;;15.36;100.00
13367;BME280;6752;52.612;13.630;2023-07-30T21:36:21;100494.91;;;15.30;100.00
13367;BME280;6752;52.612;13.630;2023-07-30T21:41:24;100496.62;;;15.36;100.00
13367;BME280;6752;52.612;13.630;2023-07-30T21:46:26;100499.11;;;15.60;100.00
13367;BME280;6752;52.612;13.630;2023-07-30T21:51:28;100489.89;;;15.46;100.00
13367;BME280;6752;52.612;13.630;2023-07-30T21:56:31;100486.34;;;15.48;100.00
13367;BME280;6752;52.612;13.630;2023-07-30T22:01:33;100484.22;;;15.64;100.00
13367;BME280;6752;52.612;13.630;2023-07-30T22:06:35;100480.35;;;15.62;100.00
13367;BME280;6752;52.612;13.630;2023-07-30T22:11:38;100474.19;;;15.80;100.00
13367;BME280;6752;52.612;13.630;2023-07-30T22:16:40;100477.91;;;15.82;100.00
13367;BME280;6752;52.612;13.630;2023-07-30T22:21:43;100469.25;;;15.82;100.00
13367;BME280;6752;52.612;13.630;2023-07-30T22:26:45;100465.61;;;15.74;100.00
13367;BME280;6752;52.612;13.630;2023-07-30T22:31:47;100454.08;;;15.74;100.00
13367;BME280;6752;52.612;13.630;2023-07-30T22:36:50;100465.67;;;15.65;100.00
13367;BME280;6752;52.612;13.630;2023-07-30T22:41:52;100455.13;;;15.68;100.00
13367;BME280;6752;52.612;13.630;2023-07-30T22:46:54;100453.73;;;15.65;100.00
13367;BME280;6752;52.612;13.630;2023-07-30T22:51:57;100447.16;;;15.69;100.00
13367;BME280;6752;52.612;13.630;2023-07-30T22:56:59;100445.25;;;15.70;100.00
13367;BME280;6752;52.612;13.630;2023-07-30T23:02:01;100447.67;;;15.63;100.00
13367;BME280;6752;52.612;13.630;2023-07-30T23:07:04;100448.00;;;15.70;100.00
13367;BME280;6752;52.612;13.630;2023-07-30T23:12:06;100447.13;;;15.64;100.00
13367;BME280;6752;52.612;13.630;2023-07-30T23:17:09;100446.48;;;15.70;100.00
13367;BME280;6752;52.612;13.630;2023-07-30T23:22:11;100449.91;;;15.69;100.00
13367;BME280;6752;52.612;13.630;2023-07-30T23:27:13;100450.91;;;15.74;100.00
13367;BME280;6752;52.612;13.630;2023-07-30T23:32:16;100449.98;;;15.77;100.00
13367;BME280;6752;52.612;13.630;2023-07-30T23:37:18;100440.84;;;15.69;100.00
13367;BME280;6752;52.612;13.630;2023-07-30T23:42:20;100433.02;;;15.69;100.00
13367;BME280;6752;52.612;13.630;2023-07-30T23:47:23;100420.34;;;15.65;100.00
13367;BME280;6752;52.612;13.630;2023-07-30T23:52:25;100411.26;;;15.62;100.00
13367;BME280;6752;52.612;13.630;2023-07-30T23:57:28;100415.59;;;15.72;100.00
